Time;durP1;ratioP1;P1;durP2;ratioP2;P2;SDS_P1;SDS_P2;PMS_P1;PMS_P2;Temp;Humidity;BMP_temperature;BMP_pressure;BME280_temperature;BME280_humidity;BME280_pressure;Samples;Min_cycle;Max_cycle;Signal;HPM_P1;HPM_P2
2023/05/02 00:02:23;;;;;;;10.40;9.50;;;;;;;;;;5014314;28;20053;-81
2023/05/02 00:04:51;;;;;;;10.63;9.73;;;;;;;;;;5011353;28;20507;-81
2023/05/02 00:07:19;;;;;;;8.15;7.45;;;;;;;;;;5012451;28;20061;-81
2023/05/02 00:09:46;;;;;;;11.18;10.18;;;;;;;;;;5012322;28;20045;-81
2023/05/02 00:12:14;;;;;;;10.63;9.63;;;;;;;;;;5018040;28;20829;-81
2023/05/02 00:14:41;;;;;;;10.18;9.30;;;;;;;;;;5012487;28;20046;-81
2023/05/02 00:17:08;;;;;;;11.32;9.80;;;;;;;;;;5014041;28;20048;-81
2023/05/02 00:19:39;;;;;;;11.45;9.55;;;;;;;;;;4991541;28;20053;-81
2023/05/02 00:22:06;;;;;;;10.23;9.25;;;;;;;;;;4986294;28;20049;-81
2023/05/02 00:24:34;;;;;;;12.38;11.27;;;;;;;;;;5009349;28;20054;-81
2023/05/02 00:27:01;;;;;;;10.82;9.52;;;;;;;;;;5009240;28;20049;-81
2023/05/02 00:29:28;;;;;;;10.38;9.50;;;;;;;;;;5010676;28;20068;-81
2023/05/02 00:32:00;;;;;;;11.07;9.85;;;;;;;;;;5008891;28;20046;-81
2023/05/02 00:34:30;;;;;;;10.88;9.95;;;;;;;;;;5010861;28;20046;-81
2023/05/02 00:36:58;;;;;;;10.75;9.65;;;;;;;;;;4991287;28;20049;-81
2023/05/02 00:39:25;;;;;;;9.77;8.98;;;;;;;;;;4992835;28;20499;-81
2023/05/02 00:41:56;;;;;;;9.18;8.27;;;;;;;;;;5008635;28;20329;-81
2023/05/02 00:44:24;;;;;;;9.82;8.98;;;;;;;;;;5016575;28;20058;-81
2023/05/02 00:46:52;;;;;;;9.20;8.50;;;;;;;;;;5010667;28;20050;-81
2023/05/02 00:49:19;;;;;;;9.60;8.70;;;;;;;;;;4989774;28;20061;-81
2023/05/02 00:51:46;;;;;;;8.85;8.05;;;;;;;;;;4989834;28;20112;-81
2023/05/02 00:54:14;;;;;;;8.70;7.93;;;;;;;;;;5011276;28;20504;-82
2023/05/02 00:56:41;;;;;;;9.00;8.23;;;;;;;;;;5011649;28;20072;-80
2023/05/02 00:59:10;;;;;;;8.77;8.00;;;;;;;;;;4986580;28;20064;-81
2023/05/02 01:01:56;;;;;;;8.93;8.18;;;;;;;;;;5007593;28;20046;-82
2023/05/02 01:04:30;;;;;;;8.43;7.72;;;;;;;;;;5006317;28;20137;-82
2023/05/02 01:07:02;;;;;;;9.27;8.40;;;;;;;;;;5008719;28;20045;-82
2023/05/02 01:09:48;;;;;;;7.60;6.93;;;;;;;;;;5005702;28;20666;-81
2023/05/02 01:12:20;;;;;;;8.70;8.00;;;;;;;;;;5014842;28;20050;-81
2023/05/02 01:14:53;;;;;;;7.88;7.28;;;;;;;;;;5014458;28;20080;-81
2023/05/02 01:17:22;;;;;;;8.60;7.70;;;;;;;;;;4995649;28;20568;-81
2023/05/02 01:19:54;;;;;;;7.32;6.72;;;;;;;;;;5014364;28;20077;-81
2023/05/02 01:22:23;;;;;;;22.85;9.57;;;;;;;;;;4991721;28;20054;-81
2023/05/02 01:24:54;;;;;;;6.85;6.28;;;;;;;;;;4994372;28;20053;-81
2023/05/02 01:27:30;;;;;;;6.10;5.65;;;;;;;;;;4994713;28;20054;-81
2023/05/02 01:29:58;;;;;;;7.13;6.53;;;;;;;;;;5012476;28;20045;-81
2023/05/02 01:32:26;;;;;;;6.65;6.15;;;;;;;;;;5011556;28;20042;-81
2023/05/02 01:34:55;;;;;;;6.88;6.28;;;;;;;;;;5008633;28;20061;-81
2023/05/02 01:37:23;;;;;;;6.97;6.38;;;;;;;;;;5014272;28;20116;-81
2023/05/02 01:39:51;;;;;;;6.57;5.97;;;;;;;;;;5020638;28;20046;-81
2023/05/02 01:42:19;;;;;;;6.45;5.90;;;;;;;;;;5007746;28;20053;-81
2023/05/02 01:44:47;;;;;;;6.90;6.30;;;;;;;;;;5026099;28;20045;-80
2023/05/02 01:47:15;;;;;;;6.60;6.00;;;;;;;;;;5003449;28;20045;-81
2023/05/02 01:49:43;;;;;;;5.82;5.32;;;;;;;;;;5010048;28;20049;-81
2023/05/02 01:52:11;;;;;;;8.23;6.00;;;;;;;;;;5011851;28;20155;-81
2023/05/02 01:54:40;;;;;;;6.57;5.97;;;;;;;;;;5010532;28;20061;-80
2023/05/02 01:57:08;;;;;;;6.00;5.40;;;;;;;;;;5011079;28;20460;-81
2023/05/02 01:59:36;;;;;;;5.28;4.88;;;;;;;;;;4991585;28;20042;-81
2023/05/02 02:02:04;;;;;;;5.45;4.95;;;;;;;;;;4994798;28;20050;-81
2023/05/02 02:04:34;;;;;;;6.47;5.88;;;;;;;;;;4994255;28;20050;-81
2023/05/02 02:07:03;;;;;;;5.97;5.47;;;;;;;;;;5011367;28;20049;-81
2023/05/02 02:09:30;;;;;;;6.22;5.65;;;;;;;;;;5009509;28;20141;-82
2023/05/02 02:12:04;;;;;;;6.85;5.30;;;;;;;;;;4987889;28;20053;-81
2023/05/02 02:14:41;;;;;;;6.47;5.88;;;;;;;;;;4989473;28;20455;-81
2023/05/02 02:17:14;;;;;;;7.10;6.50;;;;;;;;;;5007067;28;20064;-82
2023/05/02 02:19:41;;;;;;;7.25;6.65;;;;;;;;;;4991116;28;20038;-82
2023/05/02 02:22:10;;;;;;;7.57;5.88;;;;;;;;;;4984759;28;20064;-82
2023/05/02 02:24:38;;;;;;;6.88;6.13;;;;;;;;;;4990249;28;20041;-81
2023/05/02 02:27:05;;;;;;;7.88;7.07;;;;;;;;;;4996721;28;20050;-81
2023/05/02 02:29:33;;;;;;;7.25;6.65;;;;;;;;;;5015000;28;20034;-80
2023/05/02 02:32:00;;;;;;;7.90;7.18;;;;;;;;;;5010678;28;20156;-82
2023/05/02 02:34:28;;;;;;;9.00;6.65;;;;;;;;;;5001935;28;20546;-81
2023/05/02 02:36:57;;;;;;;7.45;6.57;;;;;;;;;;5022539;28;20050;-81
2023/05/02 02:39:44;;;;;;;8.10;7.47;;;;;;;;;;5003005;28;20403;-81
2023/05/02 02:42:14;;;;;;;9.80;8.90;;;;;;;;;;4991182;28;20541;-82
2023/05/02 02:44:54;;;;;;;8.55;7.80;;;;;;;;;;4991609;28;20041;-81
2023/05/02 02:47:40;;;;;;;10.48;8.65;;;;;;;;;;4986804;28;20065;-81
2023/05/02 02:50:16;;;;;;;10.40;9.30;;;;;;;;;;4991184;28;20050;-80
2023/05/02 02:52:50;;;;;;;10.13;9.32;;;;;;;;;;5005958;28;20073;-81
2023/05/02 02:55:24;;;;;;;12.27;9.45;;;;;;;;;;5004280;28;20054;-81
2023/05/02 02:57:57;;;;;;;10.02;9.13;;;;;;;;;;5006126;28;20079;-81
2023/05/02 03:00:27;;;;;;;10.55;9.55;;;;;;;;;;4987643;28;20050;-81
2023/05/02 03:02:55;;;;;;;10.10;9.15;;;;;;;;;;5006328;28;20605;-81
2023/05/02 03:05:23;;;;;;;10.93;9.88;;;;;;;;;;5008432;28;20046;-82
2023/05/02 03:07:51;;;;;;;11.70;10.70;;;;;;;;;;5012661;28;20062;-81
2023/05/02 03:10:22;;;;;;;10.90;9.95;;;;;;;;;;4994003;28;20503;-82
2023/05/02 03:12:54;;;;;;;11.25;10.02;;;;;;;;;;4993575;28;20042;-82
2023/05/02 03:15:32;;;;;;;9.85;8.95;;;;;;;;;;4993935;28;20081;-82
2023/05/02 03:18:00;;;;;;;11.73;10.38;;;;;;;;;;4993877;28;20061;-81
2023/05/02 03:20:28;;;;;;;11.38;10.18;;;;;;;;;;4993374;28;20128;-81
2023/05/02 03:22:55;;;;;;;11.65;10.45;;;;;;;;;;4986520;28;20058;-82
2023/05/02 03:25:22;;;;;;;11.98;10.82;;;;;;;;;;4988865;28;20057;-81
2023/05/02 03:27:50;;;;;;;12.32;11.02;;;;;;;;;;5009621;28;20050;-81
2023/05/02 03:30:18;;;;;;;12.50;11.18;;;;;;;;;;4992667;28;20539;-82
2023/05/02 03:32:46;;;;;;;10.93;9.95;;;;;;;;;;4992337;28;20062;-81
2023/05/02 03:35:13;;;;;;;12.60;11.45;;;;;;;;;;4992399;28;20046;-81
2023/05/02 03:37:44;;;;;;;12.00;10.73;;;;;;;;;;4994185;28;20204;-81
2023/05/02 03:40:11;;;;;;;12.23;11.10;;;;;;;;;;4995939;28;20169;-81
2023/05/02 03:42:40;;;;;;;13.20;12.00;;;;;;;;;;5007299;28;20050;-82
2023/05/02 03:45:18;;;;;;;14.00;12.70;;;;;;;;;;4990057;28;20052;-80
2023/05/02 03:47:45;;;;;;;13.80;12.50;;;;;;;;;;4990483;28;20057;-82
2023/05/02 03:50:13;;;;;;;12.88;11.70;;;;;;;;;;5011786;28;20046;-81
2023/05/02 03:52:41;;;;;;;13.93;12.63;;;;;;;;;;4994203;28;20072;-81
2023/05/02 03:55:09;;;;;;;13.45;12.13;;;;;;;;;;4993666;28;20049;-81
2023/05/02 03:57:36;;;;;;;13.90;12.45;;;;;;;;;;5049111;23;20078;-84
2023/05/02 04:00:05;;;;;;;13.93;12.63;;;;;;;;;;4961253;28;20412;-83
2023/05/02 04:02:52;;;;;;;14.98;13.48;;;;;;;;;;4977647;28;20065;-83
2023/05/02 04:06:00;;;;;;;15.52;13.50;;;;;;;;;;4982219;28;20575;-83
2023/05/02 04:09:17;;;;;;;15.93;14.07;;;;;;;;;;4971176;28;20189;-83
2023/05/02 04:11:51;;;;;;;15.60;14.10;;;;;;;;;;4967256;28;20050;-84
2023/05/02 04:14:19;;;;;;;16.45;13.98;;;;;;;;;;4968811;28;20619;-84
2023/05/02 04:16:51;;;;;;;14.73;13.23;;;;;;;;;;4962163;28;20043;-85
2023/05/02 04:19:27;;;;;;;15.27;13.85;;;;;;;;;;4994011;28;20527;-83
2023/05/02 04:21:54;;;;;;;13.85;12.60;;;;;;;;;;4968827;28;20061;-85
2023/05/02 04:24:22;;;;;;;19.02;15.00;;;;;;;;;;4980429;28;20056;-83
2023/05/02 04:26:50;;;;;;;15.98;14.38;;;;;;;;;;4979904;28;20045;-82
2023/05/02 04:29:17;;;;;;;14.75;13.43;;;;;;;;;;4980848;28;20050;-83
2023/05/02 04:31:45;;;;;;;17.85;15.20;;;;;;;;;;4992035;28;20046;-83
2023/05/02 04:34:14;;;;;;;17.63;15.77;;;;;;;;;;4968277;28;20505;-83
2023/05/02 04:36:45;;;;;;;16.75;14.95;;;;;;;;;;4996379;28;20058;-83
2023/05/02 04:39:18;;;;;;;18.02;16.13;;;;;;;;;;4972910;28;20077;-85
2023/05/02 04:41:55;;;;;;;19.80;15.60;;;;;;;;;;4965053;28;20046;-83
2023/05/02 04:44:25;;;;;;;16.60;14.93;;;;;;;;;;4979875;28;20282;-83
2023/05/02 04:46:54;;;;;;;14.77;13.38;;;;;;;;;;4968141;28;20058;-83
2023/05/02 04:49:21;;;;;;;17.65;15.93;;;;;;;;;;4968239;28;20334;-84
2023/05/02 04:51:50;;;;;;;16.88;15.18;;;;;;;;;;4969277;28;20420;-83
2023/05/02 04:54:21;;;;;;;17.52;15.77;;;;;;;;;;4970185;28;20130;-83
2023/05/02 04:56:48;;;;;;;16.20;14.23;;;;;;;;;;4968135;28;20412;-84
2023/05/02 04:59:16;;;;;;;18.08;16.17;;;;;;;;;;4965602;28;20054;-83
2023/05/02 05:01:44;;;;;;;54.50;30.40;;;;;;;;;;4962543;28;20315;-84
2023/05/02 05:04:11;;;;;;;18.05;16.15;;;;;;;;;;4979257;28;20137;-83
2023/05/02 05:06:40;;;;;;;20.75;17.50;;;;;;;;;;4965807;28;20050;-83
2023/05/02 05:09:08;;;;;;;19.10;17.15;;;;;;;;;;4983235;28;20039;-84
2023/05/02 05:11:37;;;;;;;18.65;16.83;;;;;;;;;;4967111;28;20057;-84
2023/05/02 05:14:05;;;;;;;19.08;17.17;;;;;;;;;;4968048;28;20042;-84
2023/05/02 05:16:36;;;;;;;20.45;17.55;;;;;;;;;;4970010;28;20148;-83
2023/05/02 05:19:04;;;;;;;17.80;16.10;;;;;;;;;;4971264;28;20128;-84
2023/05/02 05:21:32;;;;;;;17.35;15.65;;;;;;;;;;4969280;28;20046;-84
2023/05/02 05:24:01;;;;;;;18.23;16.52;;;;;;;;;;4992548;28;20050;-83
2023/05/02 05:26:28;;;;;;;21.05;16.33;;;;;;;;;;4983533;28;20053;-82
2023/05/02 05:28:57;;;;;;;18.75;16.95;;;;;;;;;;4971977;28;20111;-83
2023/05/02 05:31:28;;;;;;;18.63;16.23;;;;;;;;;;4969114;28;20038;-83
2023/05/02 05:34:00;;;;;;;16.90;15.10;;;;;;;;;;4971579;28;20438;-83
2023/05/02 05:36:30;;;;;;;17.48;15.88;;;;;;;;;;4966025;28;20097;-82
2023/05/02 05:38:57;;;;;;;17.05;15.35;;;;;;;;;;5012762;28;20096;-82
2023/05/02 05:41:25;;;;;;;17.48;15.77;;;;;;;;;;4982378;28;20050;-83
2023/05/02 05:43:59;;;;;;;17.60;15.82;;;;;;;;;;4967895;28;20058;-84
2023/05/02 05:46:28;;;;;;;18.05;16.20;;;;;;;;;;4980497;28;20042;-83
2023/05/02 05:48:56;;;;;;;17.65;15.85;;;;;;;;;;4976973;28;20553;-83
2023/05/02 05:51:27;;;;;;;17.65;15.95;;;;;;;;;;4969324;28;20081;-83
2023/05/02 05:53:57;;;;;;;16.42;14.80;;;;;;;;;;4983068;28;20269;-84
2023/05/02 05:56:26;;;;;;;17.63;15.82;;;;;;;;;;4969319;28;20053;-83
2023/05/02 05:58:59;;;;;;;16.70;15.07;;;;;;;;;;4969672;28;20046;-83
2023/05/02 06:01:27;;;;;;;18.25;16.55;;;;;;;;;;4969978;28;20512;-83
2023/05/02 06:03:55;;;;;;;18.80;16.02;;;;;;;;;;4962213;28;20112;-83
2023/05/02 06:06:23;;;;;;;18.45;16.50;;;;;;;;;;4966789;28;20043;-82
2023/05/02 06:08:51;;;;;;;17.33;15.52;;;;;;;;;;4967221;28;20042;-82
2023/05/02 06:11:19;;;;;;;16.30;14.32;;;;;;;;;;4968096;28;20054;-83
2023/05/02 06:13:47;;;;;;;16.52;14.60;;;;;;;;;;4972290;28;20129;-84
2023/05/02 06:16:14;;;;;;;17.65;15.90;;;;;;;;;;4976437;28;20054;-83
2023/05/02 06:18:42;;;;;;;15.52;13.93;;;;;;;;;;4963799;28;20034;-84
2023/05/02 06:21:09;;;;;;;14.18;12.65;;;;;;;;;;4965686;28;20126;-84
2023/05/02 06:23:37;;;;;;;16.45;14.90;;;;;;;;;;4967622;28;20050;-83
2023/05/02 06:26:05;;;;;;;16.48;14.88;;;;;;;;;;4976642;28;20046;-85
2023/05/02 06:28:33;;;;;;;16.90;15.13;;;;;;;;;;5009422;28;20068;-84
2023/05/02 06:31:01;;;;;;;17.00;14.35;;;;;;;;;;4967115;28;20046;-83
2023/05/02 06:33:30;;;;;;;16.75;13.65;;;;;;;;;;4980774;28;20235;-84
2023/05/02 06:35:58;;;;;;;16.73;15.10;;;;;;;;;;4994628;28;20137;-83
2023/05/02 06:38:28;;;;;;;18.75;14.70;;;;;;;;;;4968795;28;20137;-83
2023/05/02 06:40:55;;;;;;;14.30;12.85;;;;;;;;;;4985918;28;20070;-85
2023/05/02 06:43:23;;;;;;;14.82;13.32;;;;;;;;;;4986619;28;20102;-85
2023/05/02 06:45:55;;;;;;;13.52;12.23;;;;;;;;;;4980185;28;20046;-83
2023/05/02 06:48:22;;;;;;;;;;;;;;;;;;4990913;28;20045;-84
2023/05/02 06:50:52;;;;;;;14.38;12.93;;;;;;;;;;4987576;28;19925;-85
2023/05/02 06:53:20;;;;;;;15.35;13.85;;;;;;;;;;5012116;23;20230;-77
2023/05/02 06:55:48;;;;;;;14.95;13.55;;;;;;;;;;5024543;28;20048;-79
2023/05/02 06:58:15;;;;;;;16.67;14.60;;;;;;;;;;5025634;28;20049;-79
2023/05/02 07:00:42;;;;;;;15.15;13.73;;;;;;;;;;5023386;28;20557;-80
2023/05/02 07:03:10;;;;;;;15.15;13.85;;;;;;;;;;5014811;28;20069;-81
2023/05/02 07:05:37;;;;;;;38.33;20.27;;;;;;;;;;5023489;28;20459;-79
2023/05/02 07:08:05;;;;;;;17.58;15.32;;;;;;;;;;5018756;28;20046;-81
2023/05/02 07:10:33;;;;;;;15.57;14.02;;;;;;;;;;5018647;28;20053;-81
2023/05/02 07:13:00;;;;;;;14.88;13.45;;;;;;;;;;5023882;28;20171;-80
2023/05/02 07:15:28;;;;;;;20.10;14.40;;;;;;;;;;5039133;28;20072;-82
2023/05/02 07:17:55;;;;;;;15.05;13.65;;;;;;;;;;5025624;28;20042;-81
2023/05/02 07:20:23;;;;;;;14.82;13.27;;;;;;;;;;5014793;28;20073;-80
2023/05/02 07:22:50;;;;;;;15.25;13.85;;;;;;;;;;4995142;28;20046;-79
2023/05/02 07:25:18;;;;;;;15.73;14.23;;;;;;;;;;5008295;28;20096;-79
2023/05/02 07:27:45;;;;;;;14.65;13.18;;;;;;;;;;4994659;28;20073;-81
2023/05/02 07:30:13;;;;;;;15.50;13.85;;;;;;;;;;5011546;28;20419;-79
2023/05/02 07:32:40;;;;;;;15.30;13.88;;;;;;;;;;5015940;28;20492;-81
2023/05/02 07:35:11;;;;;;;17.33;13.68;;;;;;;;;;5011862;28;20077;-79
2023/05/02 07:37:43;;;;;;;14.65;13.30;;;;;;;;;;5011931;28;20057;-80
2023/05/02 07:40:11;;;;;;;12.75;11.55;;;;;;;;;;5013538;28;20046;-79
2023/05/02 07:42:43;;;;;;;12.70;11.60;;;;;;;;;;4988689;28;20042;-80
2023/05/02 07:45:11;;;;;;;13.13;11.93;;;;;;;;;;5018422;28;20045;-79
2023/05/02 07:47:38;;;;;;;16.20;12.07;;;;;;;;;;5015665;28;20294;-80
2023/05/02 07:50:06;;;;;;;12.63;11.45;;;;;;;;;;5018859;28;20077;-80
2023/05/02 07:52:34;;;;;;;12.60;11.38;;;;;;;;;;5032620;28;20080;-80
2023/05/02 07:55:01;;;;;;;13.07;11.05;;;;;;;;;;5009005;28;20073;-82
2023/05/02 07:57:28;;;;;;;13.18;11.18;;;;;;;;;;5020590;28;20047;-79
2023/05/02 07:59:56;;;;;;;12.80;11.55;;;;;;;;;;5023954;28;20053;-79
2023/05/02 08:02:24;;;;;;;13.00;11.27;;;;;;;;;;5028495;28;20052;-81
2023/05/02 08:04:52;;;;;;;15.23;12.20;;;;;;;;;;5008494;28;20058;-80
2023/05/02 08:07:20;;;;;;;12.65;11.63;;;;;;;;;;5020478;28;20057;-80
2023/05/02 08:09:47;;;;;;;10.65;9.75;;;;;;;;;;5019500;28;20049;-80
2023/05/02 08:12:15;;;;;;;13.23;10.93;;;;;;;;;;5010539;28;20053;-79
2023/05/02 08:14:42;;;;;;;12.07;10.98;;;;;;;;;;5027834;28;20470;-80
2023/05/02 08:17:10;;;;;;;12.27;11.10;;;;;;;;;;5008577;28;20458;-79
2023/05/02 08:19:37;;;;;;;11.63;10.52;;;;;;;;;;5008169;28;20140;-79
2023/05/02 08:22:04;;;;;;;11.05;9.82;;;;;;;;;;5018340;28;20042;-78
2023/05/02 08:24:32;;;;;;;10.88;9.77;;;;;;;;;;5027649;28;20507;-79
2023/05/02 08:27:02;;;;;;;10.55;9.45;;;;;;;;;;5018957;28;20045;-80
2023/05/02 08:29:30;;;;;;;10.52;9.52;;;;;;;;;;5012955;28;20060;-80
2023/05/02 08:31:58;;;;;;;9.85;8.95;;;;;;;;;;5016831;28;20104;-80
2023/05/02 08:34:26;;;;;;;13.07;9.40;;;;;;;;;;5009284;28;20077;-79
2023/05/02 08:36:54;;;;;;;8.40;7.63;;;;;;;;;;5017963;28;20543;-80
2023/05/02 08:39:24;;;;;;;9.20;8.40;;;;;;;;;;5027222;28;20049;-79
2023/05/02 08:41:51;;;;;;;9.77;8.77;;;;;;;;;;5019672;28;20173;-81
2023/05/02 08:44:19;;;;;;;8.80;8.00;;;;;;;;;;5010908;28;20057;-79
2023/05/02 08:46:48;;;;;;;9.18;8.38;;;;;;;;;;5018751;28;20054;-82
2023/05/02 08:49:17;;;;;;;9.10;8.23;;;;;;;;;;5019164;28;20414;-79
2023/05/02 08:51:50;;;;;;;9.23;8.32;;;;;;;;;;5027668;28;20052;-79
2023/05/02 08:54:20;;;;;;;9.68;8.77;;;;;;;;;;5023250;28;20056;-79
2023/05/02 08:56:48;;;;;;;10.02;8.75;;;;;;;;;;5007356;28;20219;-78
2023/05/02 08:59:16;;;;;;;10.55;9.55;;;;;;;;;;4999368;28;20060;-79
2023/05/02 09:01:48;;;;;;;10.10;9.20;;;;;;;;;;5020483;28;20049;-79
2023/05/02 09:04:18;;;;;;;9.82;8.65;;;;;;;;;;5025541;28;20140;-81
2023/05/02 09:06:45;;;;;;;11.40;10.40;;;;;;;;;;5019766;28;20053;-80
2023/05/02 09:09:13;;;;;;;9.45;8.15;;;;;;;;;;5016162;28;20500;-81
2023/05/02 09:11:41;;;;;;;10.00;9.10;;;;;;;;;;5016177;28;20046;-78
2023/05/02 09:14:15;;;;;;;9.73;8.35;;;;;;;;;;5025518;28;20087;-80
2023/05/02 09:16:43;;;;;;;8.95;8.13;;;;;;;;;;5027035;28;20495;-79
2023/05/02 09:19:10;;;;;;;8.93;8.13;;;;;;;;;;5018201;28;20062;-80
2023/05/02 09:21:39;;;;;;;9.70;8.70;;;;;;;;;;5018338;28;20148;-81
2023/05/02 09:24:17;;;;;;;9.63;8.82;;;;;;;;;;5016437;28;20053;-79
2023/05/02 09:26:58;;;;;;;9.52;8.77;;;;;;;;;;4997476;28;20662;-79
2023/05/02 09:29:29;;;;;;;9.63;8.00;;;;;;;;;;5018982;28;20914;-83
2023/05/02 09:31:57;;;;;;;13.27;7.82;;;;;;;;;;5013679;28;20076;-80
2023/05/02 09:34:25;;;;;;;11.88;8.90;;;;;;;;;;5006409;28;20137;-80
2023/05/02 09:36:53;;;;;;;9.38;8.57;;;;;;;;;;5035478;28;20049;-81
2023/05/02 09:39:22;;;;;;;8.82;8.00;;;;;;;;;;5035352;28;20045;-81
2023/05/02 09:41:53;;;;;;;;;;;;;;;;;;5041192;28;20107;-79
2023/05/02 09:44:22;;;;;;;8.50;7.75;;;;;;;;;;5001624;28;20335;-79
2023/05/02 09:46:52;;;;;;;9.60;8.70;;;;;;;;;;5018513;28;20104;-80
2023/05/02 09:49:38;;;;;;;9.38;8.57;;;;;;;;;;5009779;28;20056;-79
2023/05/02 09:52:10;;;;;;;9.13;7.45;;;;;;;;;;4991401;28;20045;-80
2023/05/02 09:54:37;;;;;;;10.50;8.73;;;;;;;;;;5007071;28;20092;-80
2023/05/02 09:57:06;;;;;;;9.05;8.18;;;;;;;;;;5014704;28;20064;-82
2023/05/02 09:59:33;;;;;;;8.38;7.57;;;;;;;;;;5020001;28;20037;-83
2023/05/02 10:02:03;;;;;;;8.07;7.28;;;;;;;;;;5017948;28;20089;-83
2023/05/02 10:04:33;;;;;;;9.25;8.45;;;;;;;;;;5017728;28;20049;-79
2023/05/02 10:07:02;;;;;;;8.27;7.57;;;;;;;;;;5010205;28;20050;-79
2023/05/02 10:09:33;;;;;;;8.07;7.38;;;;;;;;;;5011247;28;20057;-81
2023/05/02 10:12:06;;;;;;;8.68;7.72;;;;;;;;;;5001242;28;20053;-80
2023/05/02 10:14:49;;;;;;;8.15;7.43;;;;;;;;;;5022193;28;20055;-82
2023/05/02 10:17:28;;;;;;;8.95;7.50;;;;;;;;;;5019360;28;20518;-80
2023/05/02 10:19:56;;;;;;;8.13;7.43;;;;;;;;;;5019543;28;20050;-81
2023/05/02 10:22:24;;;;;;;8.57;7.80;;;;;;;;;;5014276;28;20094;-81
2023/05/02 10:24:53;;;;;;;8.70;7.80;;;;;;;;;;5014349;28;20108;-80
2023/05/02 10:27:20;;;;;;;8.20;7.50;;;;;;;;;;5014201;28;20060;-80
2023/05/02 10:29:48;;;;;;;8.48;7.70;;;;;;;;;;5005780;28;20520;-82
2023/05/02 10:32:17;;;;;;;9.13;8.18;;;;;;;;;;5017016;28;20507;-80
2023/05/02 10:34:45;;;;;;;9.18;8.38;;;;;;;;;;5001844;28;20567;-79
2023/05/02 10:37:13;;;;;;;8.45;7.65;;;;;;;;;;5021780;28;20053;-80
2023/05/02 10:39:40;;;;;;;10.05;9.05;;;;;;;;;;5011676;28;20049;-80
2023/05/02 10:42:08;;;;;;;8.23;7.47;;;;;;;;;;5023116;28;20049;-80
2023/05/02 10:44:37;;;;;;;9.25;8.45;;;;;;;;;;5019207;28;20049;-81
2023/05/02 10:47:25;;;;;;;8.32;7.60;;;;;;;;;;5014308;28;20058;-80
2023/05/02 10:49:54;;;;;;;9.43;8.00;;;;;;;;;;5014926;28;20507;-81
2023/05/02 10:52:26;;;;;;;8.95;7.97;;;;;;;;;;5015562;28;20053;-79
2023/05/02 10:55:12;;;;;;;7.90;7.25;;;;;;;;;;5018324;28;20061;-80
2023/05/02 10:57:59;;;;;;;8.20;7.50;;;;;;;;;;5018023;28;20051;-81
2023/05/02 11:00:32;;;;;;;10.38;9.38;;;;;;;;;;5012986;28;20065;-81
2023/05/02 11:03:00;;;;;;;8.45;7.70;;;;;;;;;;5011553;28;20049;-79
2023/05/02 11:05:29;;;;;;;8.73;7.97;;;;;;;;;;5017524;28;21649;-81
2023/05/02 11:08:14;;;;;;;10.85;9.25;;;;;;;;;;5012787;28;20045;-79
2023/05/02 11:10:45;;;;;;;9.05;8.15;;;;;;;;;;5013617;28;20107;-82
2023/05/02 11:13:12;;;;;;;8.55;7.82;;;;;;;;;;5019092;28;20064;-79
2023/05/02 11:15:41;;;;;;;8.25;7.55;;;;;;;;;;5024332;28;20129;-80
2023/05/02 11:18:12;;;;;;;9.95;8.65;;;;;;;;;;4999774;28;20092;-79
2023/05/02 11:20:43;;;;;;;10.30;9.18;;;;;;;;;;5023755;28;20283;-83
2023/05/02 11:23:14;;;;;;;9.55;8.65;;;;;;;;;;5034891;28;20046;-81
2023/05/02 11:25:48;;;;;;;10.52;9.45;;;;;;;;;;5038853;28;20848;-83
2023/05/02 11:28:36;;;;;;;9.18;8.40;;;;;;;;;;5027661;28;20073;-82
2023/05/02 11:31:04;;;;;;;10.25;9.32;;;;;;;;;;5010970;28;20261;-83
2023/05/02 11:33:32;;;;;;;8.10;7.30;;;;;;;;;;5029541;28;20049;-81
2023/05/02 11:35:59;;;;;;;9.10;8.20;;;;;;;;;;5012657;28;20045;-80
2023/05/02 11:38:35;;;;;;;9.52;8.60;;;;;;;;;;5018094;28;20077;-80
2023/05/02 11:41:03;;;;;;;9.70;8.73;;;;;;;;;;5017165;28;20045;-82
2023/05/02 11:43:31;;;;;;;9.75;8.95;;;;;;;;;;5019581;28;20069;-82
2023/05/02 11:46:00;;;;;;;10.45;9.48;;;;;;;;;;5026204;28;20059;-82
2023/05/02 11:48:28;;;;;;;10.85;9.40;;;;;;;;;;5027133;28;20045;-80
2023/05/02 11:51:04;;;;;;;10.90;9.80;;;;;;;;;;5010926;28;20046;-79
2023/05/02 11:53:32;;;;;;;10.43;9.23;;;;;;;;;;5008642;28;20133;-79
2023/05/02 11:56:00;;;;;;;12.23;9.82;;;;;;;;;;5016231;28;20041;-80
2023/05/02 11:58:31;;;;;;;11.52;10.32;;;;;;;;;;5019558;28;20041;-79
2023/05/02 12:01:12;;;;;;;10.13;9.23;;;;;;;;;;5028060;28;20045;-80
2023/05/02 12:03:40;;;;;;;10.05;8.70;;;;;;;;;;5022054;28;20473;-80
2023/05/02 12:06:10;;;;;;;11.50;10.40;;;;;;;;;;5016842;28;20059;-80
2023/05/02 12:08:40;;;;;;;10.95;9.95;;;;;;;;;;5015857;28;20057;-81
2023/05/02 12:11:08;;;;;;;11.82;10.20;;;;;;;;;;5016669;28;20523;-80
2023/05/02 12:13:43;;;;;;;10.82;9.82;;;;;;;;;;5015539;28;20339;-80
2023/05/02 12:16:11;;;;;;;9.10;8.40;;;;;;;;;;5024822;28;20140;-78
2023/05/02 12:18:38;;;;;;;10.73;9.82;;;;;;;;;;4998315;28;20049;-78
2023/05/02 12:21:06;;;;;;;11.00;10.02;;;;;;;;;;5024704;28;20102;-77
2023/05/02 12:23:35;;;;;;;9.35;8.55;;;;;;;;;;5025845;28;20053;-80
2023/05/02 12:26:17;;;;;;;11.25;9.98;;;;;;;;;;5018460;28;20060;-79
2023/05/02 12:28:53;;;;;;;11.63;10.52;;;;;;;;;;5026602;28;20045;-79
2023/05/02 12:31:22;;;;;;;10.15;9.25;;;;;;;;;;5016096;28;20076;-81
2023/05/02 12:33:51;;;;;;;11.10;10.10;;;;;;;;;;5015576;28;20078;-80
2023/05/02 12:36:18;;;;;;;10.35;9.40;;;;;;;;;;5017944;28;20074;-80
2023/05/02 12:38:53;;;;;;;12.70;10.32;;;;;;;;;;5020814;28;20075;-80
2023/05/02 12:41:37;;;;;;;10.65;9.75;;;;;;;;;;5017967;28;20376;-80
2023/05/02 12:44:06;;;;;;;12.20;11.02;;;;;;;;;;5019300;28;20054;-80
2023/05/02 12:46:35;;;;;;;10.70;9.60;;;;;;;;;;5015601;28;20297;-80
2023/05/02 12:49:02;;;;;;;10.55;9.10;;;;;;;;;;5015872;28;20120;-80
2023/05/02 12:51:31;;;;;;;11.98;10.88;;;;;;;;;;5019782;28;20049;-81
2023/05/02 12:53:59;;;;;;;10.35;9.30;;;;;;;;;;5056846;23;20049;-82
2023/05/02 12:56:30;;;;;;;9.73;8.80;;;;;;;;;;5049346;28;20091;-82
2023/05/02 12:59:00;;;;;;;10.77;8.95;;;;;;;;;;5021538;28;20045;-81
2023/05/02 13:01:27;;;;;;;10.63;9.70;;;;;;;;;;5030109;28;20073;-81
2023/05/02 13:03:55;;;;;;;10.05;9.05;;;;;;;;;;5030081;28;20120;-82
2023/05/02 13:06:22;;;;;;;8.52;7.72;;;;;;;;;;5027697;28;20065;-82
2023/05/02 13:08:49;;;;;;;11.40;8.70;;;;;;;;;;5031010;28;20068;-82
2023/05/02 13:11:17;;;;;;;9.48;8.55;;;;;;;;;;5040576;28;20045;-81
2023/05/02 13:13:44;;;;;;;9.10;8.18;;;;;;;;;;5033575;28;20045;-82
2023/05/02 13:16:12;;;;;;;9.57;8.68;;;;;;;;;;5015584;28;20077;-82
2023/05/02 13:18:39;;;;;;;9.32;8.40;;;;;;;;;;5014143;28;20047;-81
2023/05/02 13:21:07;;;;;;;9.23;8.27;;;;;;;;;;5030855;28;20096;-82
2023/05/02 13:23:34;;;;;;;8.43;7.55;;;;;;;;;;5029684;28;20468;-81
2023/05/02 13:26:01;;;;;;;9.10;8.30;;;;;;;;;;5023886;28;20129;-82
2023/05/02 13:28:32;;;;;;;8.60;7.80;;;;;;;;;;5025782;28;20042;-81
2023/05/02 13:30:59;;;;;;;8.18;7.40;;;;;;;;;;5022709;28;20416;-81
2023/05/02 13:33:26;;;;;;;9.38;8.45;;;;;;;;;;5029361;28;20136;-82
2023/05/02 13:35:54;;;;;;;8.20;7.50;;;;;;;;;;5030595;28;20053;-81
2023/05/02 13:38:21;;;;;;;10.02;9.07;;;;;;;;;;5029232;28;20080;-81
2023/05/02 13:40:49;;;;;;;11.73;10.50;;;;;;;;;;5028916;28;20041;-81
2023/05/02 13:43:16;;;;;;;11.63;10.50;;;;;;;;;;5029223;28;20076;-81
2023/05/02 13:45:46;;;;;;;9.25;8.45;;;;;;;;;;5029551;28;20049;-81
2023/05/02 13:48:14;;;;;;;8.38;7.57;;;;;;;;;;5029742;28;20153;-80
2023/05/02 13:50:41;;;;;;;8.23;6.82;;;;;;;;;;5029014;28;20045;-80
2023/05/02 13:53:10;;;;;;;8.60;7.82;;;;;;;;;;5028359;28;20494;-82
2023/05/02 13:55:37;;;;;;;11.43;9.10;;;;;;;;;;5015491;28;20099;-83
2023/05/02 13:58:04;;;;;;;15.68;9.07;;;;;;;;;;5026507;28;20119;-84
2023/05/02 14:00:35;;;;;;;9.07;8.18;;;;;;;;;;5027076;28;20042;-84
2023/05/02 14:03:03;;;;;;;;;;;;;;;;;;5028494;28;20072;-84
2023/05/02 14:06:00;;;;;;;14.80;10.50;;;;;;;;;;5007130;28;20632;-88
2023/05/02 14:12:18;;;;;;;13.02;11.73;;;;;;;;;;5044557;28;20531;-89
2023/05/02 14:14:46;;;;;;;14.02;12.63;;;;;;;;;;5056443;28;20037;-86
2023/05/02 14:17:14;;;;;;;13.32;11.93;;;;;;;;;;5042596;28;20045;-87
2023/05/02 14:19:41;;;;;;;13.43;12.13;;;;;;;;;;5040340;28;20054;-86
2023/05/02 14:22:09;;;;;;;11.93;10.73;;;;;;;;;;5030270;28;20052;-87
2023/05/02 14:24:36;;;;;;;13.10;11.80;;;;;;;;;;5041926;28;20068;-84
2023/05/02 14:27:06;;;;;;;12.48;11.35;;;;;;;;;;5017684;28;20049;-86
2023/05/02 14:29:34;;;;;;;9.70;8.90;;;;;;;;;;5034146;28;20045;-87
2023/05/02 14:32:01;;;;;;;9.27;8.38;;;;;;;;;;5043147;28;20053;-85
2023/05/02 14:34:29;;;;;;;6.53;6.03;;;;;;;;;;5025048;28;20060;-83
2023/05/02 14:36:56;;;;;;;7.10;6.50;;;;;;;;;;5020495;28;20049;-84
2023/05/02 14:39:24;;;;;;;6.35;5.82;;;;;;;;;;5031059;28;20196;-84
2023/05/02 14:41:51;;;;;;;5.60;5.20;;;;;;;;;;5021552;28;20291;-86
2023/05/02 14:44:19;;;;;;;4.93;4.53;;;;;;;;;;5036344;28;20056;-84
2023/05/02 14:46:46;;;;;;;5.25;4.85;;;;;;;;;;5027133;28;20064;-83
2023/05/02 14:49:14;;;;;;;5.13;4.72;;;;;;;;;;5027860;28;20045;-84
2023/05/02 14:51:46;;;;;;;4.45;4.05;;;;;;;;;;5041142;28;20075;-82